createdAt,value
2022-11-27T00:01:21.300Z,-2.98
2022-11-27T00:03:48.297Z,-3.01
2022-11-27T00:06:17.825Z,-3.19
2022-11-27T00:08:45.561Z,-3.25
2022-11-27T00:11:15.812Z,-3.34
2022-11-27T00:13:42.664Z,-3.26
2022-11-27T00:16:09.693Z,-3.16
2022-11-27T00:18:36.687Z,-3.24
2022-11-27T00:21:13.390Z,-3.35
2022-11-27T00:23:40.768Z,-3.31
2022-11-27T00:26:08.058Z,-3.75
2022-11-27T00:28:41.723Z,-3.46
2022-11-27T00:31:21.201Z,-3.37
2022-11-27T00:33:48.132Z,-3.48
2022-11-27T00:36:15.931Z,-3.34
2022-11-27T00:38:42.735Z,-3.33
2022-11-27T00:41:12.318Z,-3.52
2022-11-27T00:43:44.547Z,-3.35
2022-11-27T00:46:13.729Z,-3.50
2022-11-27T00:48:40.388Z,-3.57
2022-11-27T00:51:10.481Z,-3.44
2022-11-27T00:53:51.482Z,-3.39
2022-11-27T00:56:22.107Z,-3.87
2022-11-27T00:58:48.611Z,-3.44
2022-11-27T01:01:25.089Z,-3.41
2022-11-27T01:03:51.740Z,-3.50
2022-11-27T01:06:19.727Z,-3.48
2022-11-27T01:08:46.511Z,-3.66
2022-11-27T01:11:25.747Z,-3.55
2022-11-27T01:13:53.457Z,-3.52
2022-11-27T01:16:22.378Z,-3.57
2022-11-27T01:18:51.587Z,-3.56
2022-11-27T01:21:21.039Z,-3.64
2022-11-27T01:23:49.022Z,-3.88
2022-11-27T01:26:32.883Z,-3.61
2022-11-27T01:28:59.709Z,-3.65
2022-11-27T01:31:29.680Z,-3.64
2022-11-27T01:33:58.487Z,-3.81
2022-11-27T01:36:27.370Z,-3.64
2022-11-27T01:38:54.637Z,-3.65
2022-11-27T01:41:29.975Z,-3.83
2022-11-27T01:44:24.028Z,-3.56
2022-11-27T01:46:56.780Z,-3.70
2022-11-27T01:49:36.999Z,-3.51
2022-11-27T01:52:12.030Z,-3.45
2022-11-27T01:54:46.037Z,-3.42
2022-11-27T01:57:20.909Z,-3.33
2022-11-27T01:59:52.536Z,-3.46
2022-11-27T02:02:19.030Z,-3.57
2022-11-27T02:04:45.737Z,-3.46
2022-11-27T02:07:12.369Z,-3.50
2022-11-27T02:09:47.169Z,-3.29
2022-11-27T02:12:24.977Z,-3.37
2022-11-27T02:15:11.331Z,-3.19
2022-11-27T02:17:46.892Z,-3.22
2022-11-27T02:20:33.572Z,-3.15
2022-11-27T02:23:18.828Z,-3.15
2022-11-27T02:26:03.423Z,-3.05
2022-11-27T02:29:00.885Z,-3.03
2022-11-27T02:32:24.012Z,-3.01
2022-11-27T02:35:07.287Z,-3.09
2022-11-27T02:37:39.544Z,-3.19
2022-11-27T02:40:26.111Z,-2.99
2022-11-27T02:42:55.547Z,-3.01
2022-11-27T02:45:27.350Z,-3.21
2022-11-27T02:47:57.068Z,-3.34
2022-11-27T02:50:25.893Z,-3.36
2022-11-27T02:53:10.499Z,-3.24
2022-11-27T02:55:39.566Z,-3.51
2022-11-27T02:58:12.751Z,-3.45
2022-11-27T03:00:42.057Z,-3.75
2022-11-27T03:03:19.926Z,-3.68
2022-11-27T03:05:49.535Z,-3.61
2022-11-27T03:08:29.789Z,-3.74
2022-11-27T03:11:16.037Z,-3.71
2022-11-27T03:13:45.596Z,-4.11
2022-11-27T03:16:27.383Z,-3.94
2022-11-27T03:19:03.209Z,-3.90
2022-11-27T03:21:43.636Z,-4.22
2022-11-27T03:24:11.399Z,-4.10
2022-11-27T03:26:39.325Z,-4.02
2022-11-27T03:29:12.461Z,-4.00
2022-11-27T03:31:39.153Z,-4.20
2022-11-27T03:34:05.743Z,-3.93
2022-11-27T03:36:32.252Z,-4.14
2022-11-27T03:38:58.730Z,-4.28
2022-11-27T03:41:44.284Z,-4.17
2022-11-27T03:44:29.396Z,-4.17
2022-11-27T03:47:11.329Z,-4.26
2022-11-27T03:49:40.709Z,-4.10
2022-11-27T03:52:29.224Z,-4.08
2022-11-27T03:55:15.928Z,-4.11
2022-11-27T03:57:54.620Z,-4.19
2022-11-27T04:00:31.636Z,-4.35
2022-11-27T04:02:58.071Z,-4.32
2022-11-27T04:05:24.523Z,-4.33
2022-11-27T04:07:52.112Z,-4.37
2022-11-27T04:10:18.686Z,-4.46
2022-11-27T04:12:45.139Z,-4.44
2022-11-27T04:15:15.842Z,-4.39
2022-11-27T04:17:42.278Z,-4.37
2022-11-27T04:20:10.814Z,-4.35
2022-11-27T04:22:37.274Z,-4.23
2022-11-27T04:25:04.091Z,-4.51
2022-11-27T04:27:30.616Z,-4.42
2022-11-27T04:29:57.116Z,-4.63
2022-11-27T04:32:23.581Z,-4.65
2022-11-27T04:34:50.014Z,-4.62
2022-11-27T04:37:16.519Z,-4.51
2022-11-27T04:39:42.934Z,-4.53
2022-11-27T04:42:09.421Z,-4.75
2022-11-27T04:44:36.197Z,-4.84
2022-11-27T04:47:02.934Z,-4.67
2022-11-27T04:49:36.501Z,-4.72
2022-11-27T04:52:03.671Z,-4.90
2022-11-27T04:54:30.108Z,-4.68
2022-11-27T04:56:56.657Z,-4.68
2022-11-27T04:59:23.547Z,-4.91
2022-11-27T05:01:50.380Z,-4.73
2022-11-27T05:04:32.363Z,-4.76
2022-11-27T05:06:58.798Z,-5.00
2022-11-27T05:09:41.492Z,-4.79
2022-11-27T05:12:07.980Z,-4.90
2022-11-27T05:14:34.442Z,-4.94
2022-11-27T05:17:01.101Z,-4.96
2022-11-27T05:19:30.112Z,-4.78
2022-11-27T05:21:56.736Z,-4.79
2022-11-27T05:24:25.719Z,-4.71
2022-11-27T05:26:52.339Z,-4.81
2022-11-27T05:29:20.390Z,-4.90
2022-11-27T05:31:46.922Z,-5.01
2022-11-27T05:34:14.195Z,-4.86
2022-11-27T05:36:41.241Z,-4.81
2022-11-27T05:39:08.938Z,-4.83
2022-11-27T05:41:37.055Z,-4.97
2022-11-27T05:44:03.973Z,-4.81
2022-11-27T05:46:30.475Z,-4.94
2022-11-27T05:48:58.040Z,-5.01
2022-11-27T05:51:25.091Z,-4.83
2022-11-27T05:53:51.621Z,-5.03
2022-11-27T05:56:18.979Z,-5.03
2022-11-27T05:58:48.050Z,-5.00
2022-11-27T06:01:16.539Z,-4.98
2022-11-27T06:03:43.078Z,-5.25
2022-11-27T06:06:12.433Z,-5.09
2022-11-27T06:08:40.359Z,-5.06
2022-11-27T06:11:08.884Z,-5.24
2022-11-27T06:13:35.796Z,-5.04
2022-11-27T06:16:12.360Z,-5.11
2022-11-27T06:18:38.911Z,-4.98
2022-11-27T06:21:10.897Z,-5.00
2022-11-27T06:23:46.485Z,-5.05
2022-11-27T06:26:33.950Z,-5.04
2022-11-27T06:29:06.540Z,-5.22
2022-11-27T06:31:33.754Z,-5.16
2022-11-27T06:34:00.932Z,-5.27
2022-11-27T06:36:44.386Z,-5.37
2022-11-27T06:39:11.883Z,-5.11
2022-11-27T06:41:38.353Z,-5.32
2022-11-27T06:44:05.057Z,-5.22
2022-11-27T06:46:31.622Z,-5.27
2022-11-27T06:48:59.384Z,-5.16
2022-11-27T06:51:29.148Z,-5.22
2022-11-27T06:53:56.428Z,-5.36
2022-11-27T06:56:25.401Z,-5.28
2022-11-27T06:58:57.162Z,-5.31
2022-11-27T07:01:25.223Z,-5.09
2022-11-27T07:03:52.183Z,-5.03
2022-11-27T07:06:21.206Z,-5.09
2022-11-27T07:08:47.973Z,-5.08
2022-11-27T07:11:20.736Z,-5.02
2022-11-27T07:13:49.893Z,-4.92
2022-11-27T07:16:36.242Z,-4.86
2022-11-27T07:19:07.481Z,-4.80
2022-11-27T07:21:37.554Z,-4.92
2022-11-27T07:24:04.221Z,-4.63
2022-11-27T07:26:31.062Z,-4.63
2022-11-27T07:28:57.563Z,-4.62
2022-11-27T07:31:28.056Z,-4.38
2022-11-27T07:33:55.188Z,-4.47
2022-11-27T07:36:24.068Z,-4.18
2022-11-27T07:38:51.098Z,-4.16
2022-11-27T07:41:18.174Z,-4.09
2022-11-27T07:43:51.523Z,-4.10
2022-11-27T07:46:23.409Z,-3.89
2022-11-27T07:48:50.010Z,-3.84
2022-11-27T07:51:19.830Z,-3.90
2022-11-27T07:53:51.912Z,-3.92
2022-11-27T07:56:19.351Z,-3.56
2022-11-27T07:58:46.152Z,-3.60
2022-11-27T08:01:15.118Z,-3.34
2022-11-27T08:03:45.821Z,-3.31
2022-11-27T08:06:31.650Z,-3.11
2022-11-27T08:08:58.080Z,-3.16
2022-11-27T08:11:27.580Z,-3.00
2022-11-27T08:14:02.168Z,-2.90
2022-11-27T08:16:36.775Z,-3.08
2022-11-27T08:19:04.317Z,-2.97
2022-11-27T08:21:30.795Z,-3.05
2022-11-27T08:23:59.281Z,-2.71
2022-11-27T08:26:27.779Z,-2.60
2022-11-27T08:29:00.658Z,-2.76
2022-11-27T08:31:27.351Z,-2.74
2022-11-27T08:33:53.995Z,-2.68
2022-11-27T08:36:20.484Z,-2.54
2022-11-27T08:38:54.396Z,-2.50
2022-11-27T08:41:21.811Z,-2.28
2022-11-27T08:43:48.237Z,-2.15
2022-11-27T08:46:14.875Z,-1.98
2022-11-27T08:48:42.023Z,-2.17
2022-11-27T08:51:14.387Z,-1.87
2022-11-27T08:53:41.045Z,-1.88
2022-11-27T08:56:26.583Z,-1.66
2022-11-27T08:58:53.197Z,-1.48
2022-11-27T09:01:24.952Z,-1.49
2022-11-27T13:31:47.047Z,6.88
2022-11-27T13:34:27.998Z,7.18
2022-11-27T13:37:02.384Z,7.37
2022-11-27T13:39:42.100Z,7.19
2022-11-27T13:42:21.194Z,7.25
2022-11-27T13:44:57.193Z,7.14
2022-11-27T13:47:26.479Z,7.14
2022-11-27T13:50:02.912Z,7.04
2022-11-27T13:52:30.185Z,7.19
2022-11-27T13:54:58.068Z,7.08
2022-11-27T13:57:30.495Z,7.07
2022-11-27T14:00:13.487Z,7.13
2022-11-27T14:02:41.159Z,6.97
2022-11-27T14:05:08.141Z,6.87
2022-11-27T14:07:45.413Z,6.90
2022-11-27T14:10:19.966Z,6.87
2022-11-27T14:13:08.053Z,6.96
2022-11-27T14:16:24.188Z,6.66
2022-11-27T14:18:52.978Z,7.11
2022-11-27T14:21:42.507Z,6.71
2022-11-27T14:24:45.806Z,6.88
2022-11-27T15:07:45.170Z,4.42
2022-11-27T15:10:38.235Z,4.46
2022-11-27T15:13:28.087Z,4.19
2022-11-27T15:16:13.705Z,3.91
2022-11-27T15:18:41.745Z,3.74
2022-11-27T15:21:16.796Z,3.67
2022-11-27T15:23:49.843Z,3.47
2022-11-27T15:26:44.274Z,3.26
2022-11-27T15:29:32.365Z,3.22
2022-11-27T15:31:58.821Z,3.01
2022-11-27T15:34:25.386Z,2.87
2022-11-27T15:36:59.640Z,2.91
2022-11-27T15:39:57.821Z,2.78
2022-11-27T15:42:28.748Z,2.88
2022-11-27T15:44:57.271Z,2.58
2022-11-27T15:47:33.720Z,2.64
2022-11-27T15:50:17.030Z,2.63
2022-11-27T15:52:44.139Z,2.59
2022-11-27T15:55:17.718Z,2.26
2022-11-27T15:58:15.608Z,2.18
2022-11-27T16:00:42.115Z,1.97
2022-11-27T16:03:08.697Z,1.85
2022-11-27T16:05:41.895Z,1.87
2022-11-27T16:08:10.824Z,1.77
2022-11-27T16:10:42.377Z,1.90
2022-11-27T16:13:09.006Z,1.70
2022-11-27T16:15:35.433Z,1.73
2022-11-27T16:18:01.890Z,1.59
2022-11-27T16:20:28.354Z,1.55
2022-11-27T16:22:54.776Z,1.56
2022-11-27T16:25:22.340Z,1.52
2022-11-27T16:27:48.767Z,1.51
2022-11-27T16:30:15.379Z,1.45
2022-11-27T16:32:42.821Z,1.33
2022-11-27T16:35:16.651Z,1.34
2022-11-27T16:37:45.104Z,1.05
2022-11-27T16:40:12.228Z,0.91
2022-11-27T16:42:40.755Z,0.95
2022-11-27T16:45:07.850Z,0.64
2022-11-27T16:47:37.394Z,0.77
2022-11-27T16:50:04.192Z,0.72
2022-11-27T16:52:30.630Z,0.84
2022-11-27T16:54:58.187Z,0.75
2022-11-27T16:57:33.733Z,0.77
2022-11-27T17:00:05.888Z,0.71
2022-11-27T17:02:39.340Z,0.67
2022-11-27T17:05:11.902Z,0.61
2022-11-27T17:07:38.538Z,0.41
2022-11-27T17:10:14.071Z,0.41
2022-11-27T17:12:40.609Z,0.48
2022-11-27T17:15:14.724Z,0.46
2022-11-27T17:17:44.332Z,0.29
2022-11-27T17:20:21.956Z,0.21
2022-11-27T17:22:57.603Z,0.20
2022-11-27T17:25:25.219Z,0.27
2022-11-27T17:28:01.025Z,0.62
2022-11-27T17:30:27.509Z,0.75
2022-11-27T17:32:56.312Z,0.42
2022-11-27T17:35:30.946Z,0.49
2022-11-27T17:38:00.467Z,0.50
2022-11-27T17:40:26.944Z,0.51
2022-11-27T17:43:12.733Z,0.62
2022-11-27T17:45:43.105Z,0.79
2022-11-27T17:48:12.830Z,0.72
2022-11-27T17:50:39.306Z,0.85
2022-11-27T17:53:05.730Z,0.80
2022-11-27T17:55:33.139Z,0.75
2022-11-27T17:57:59.621Z,0.64
2022-11-27T18:00:40.282Z,0.60
2022-11-27T18:03:07.872Z,0.63
2022-11-27T18:05:46.721Z,0.75
2022-11-27T18:08:13.153Z,0.83
2022-11-27T18:10:44.803Z,0.82
2022-11-27T18:13:26.404Z,0.95
2022-11-27T18:15:52.905Z,0.76
2022-11-27T18:18:34.051Z,0.74
2022-11-27T18:21:18.476Z,0.69
2022-11-27T18:29:50.169Z,1.09
2022-11-27T18:32:18.592Z,1.06
2022-11-27T18:34:45.982Z,1.13
2022-11-27T18:37:15.583Z,1.09
2022-11-27T18:39:44.447Z,1.21
2022-11-27T18:42:11.943Z,1.12
2022-11-27T18:45:00.039Z,1.07
2022-11-27T18:47:33.500Z,1.12
2022-11-27T18:50:19.104Z,1.08
2022-11-27T18:52:47.804Z,1.13
2022-11-27T18:55:23.405Z,1.05
2022-11-27T18:58:01.168Z,1.00
2022-11-27T19:00:28.086Z,1.04
2022-11-27T19:02:54.777Z,1.05
2022-11-27T19:05:23.382Z,1.00
2022-11-27T19:07:49.902Z,0.71
2022-11-27T19:10:21.436Z,1.38
2022-11-27T19:12:48.866Z,1.57
2022-11-27T19:15:16.340Z,1.37
2022-11-27T19:17:42.883Z,1.26
2022-11-27T19:20:15.588Z,1.29
2022-11-27T19:22:44.034Z,1.17
2022-11-27T19:25:11.477Z,1.17
2022-11-27T19:27:37.924Z,1.14
2022-11-27T19:30:05.644Z,1.23
2022-11-27T19:32:39.434Z,1.26
2022-11-27T19:35:31.463Z,1.31
2022-11-27T19:38:03.509Z,1.36
2022-11-27T19:40:33.214Z,1.32
2022-11-27T19:43:01.356Z,1.32
2022-11-27T19:45:35.130Z,1.60
2022-11-27T19:48:02.794Z,1.55
2022-11-27T19:50:36.167Z,1.49
2022-11-27T19:53:05.076Z,1.58
2022-11-27T19:55:31.922Z,1.52
2022-11-27T19:57:59.498Z,1.33
2022-11-27T20:00:34.042Z,1.37
2022-11-27T20:03:00.497Z,1.48
2022-11-27T20:05:29.123Z,1.38
2022-11-27T20:07:55.638Z,1.32
2022-11-27T20:10:48.700Z,1.58
2022-11-27T20:13:16.161Z,1.37
2022-11-27T20:15:48.522Z,1.49
2022-11-27T20:18:16.995Z,1.34
2022-11-27T20:20:46.899Z,1.25
2022-11-27T20:23:14.597Z,1.27
2022-11-27T20:25:47.065Z,1.39
2022-11-27T20:28:23.667Z,1.20
2022-11-27T20:31:00.870Z,1.34
2022-11-27T20:33:36.677Z,1.21
2022-11-27T20:36:03.489Z,1.03
2022-11-27T20:38:34.990Z,0.76
2022-11-27T20:41:09.311Z,1.11
2022-11-27T20:43:37.033Z,1.07
2022-11-27T20:46:04.272Z,1.02
2022-11-27T20:48:35.083Z,0.97
2022-11-27T20:51:11.082Z,0.99
2022-11-27T20:53:49.972Z,0.89
2022-11-27T20:56:25.986Z,1.02
2022-11-27T20:59:01.696Z,0.87
2022-11-27T21:01:32.247Z,1.04
2022-11-27T21:04:10.743Z,1.13
2022-11-27T21:06:43.745Z,1.17
2022-11-27T21:09:12.248Z,1.08
2022-11-27T21:11:41.311Z,1.28
2022-11-27T21:14:17.338Z,1.06
2022-11-27T21:16:54.401Z,1.09
2022-11-27T21:19:25.350Z,1.01
2022-11-27T21:21:55.002Z,1.04
2022-11-27T21:24:26.348Z,1.11
2022-11-27T21:27:01.043Z,0.89
2022-11-27T21:29:27.744Z,0.91
2022-11-27T21:31:55.240Z,1.09
2022-11-27T21:34:24.027Z,1.37
2022-11-27T21:37:05.795Z,0.96
2022-11-27T21:39:33.258Z,0.84
2022-11-27T21:42:10.475Z,0.95
2022-11-27T21:44:41.327Z,0.93
2022-11-27T21:47:12.143Z,0.89
2022-11-27T21:49:39.752Z,0.73
2022-11-27T21:52:23.621Z,0.68
2022-11-27T21:54:50.850Z,0.83
2022-11-27T21:57:17.392Z,0.75
2022-11-27T21:59:43.869Z,1.01
2022-11-27T22:02:11.993Z,0.88
2022-11-27T22:04:39.676Z,0.84
2022-11-27T22:07:08.336Z,0.75
2022-11-27T22:09:34.819Z,0.76
2022-11-27T22:12:01.355Z,0.69
2022-11-27T22:14:31.039Z,0.63
2022-11-27T22:17:02.636Z,0.62
2022-11-27T22:19:42.202Z,0.60
2022-11-27T22:22:17.990Z,0.49
2022-11-27T22:24:44.610Z,0.48
2022-11-27T22:27:11.174Z,0.59
2022-11-27T22:29:46.954Z,0.39
2022-11-27T22:32:14.518Z,0.41
2022-11-27T22:34:45.153Z,0.33
2022-11-27T22:37:21.947Z,0.28
2022-11-27T22:39:48.353Z,0.29
2022-11-27T22:42:14.784Z,0.30
2022-11-27T22:44:41.318Z,0.34
2022-11-27T22:47:07.947Z,0.45
2022-11-27T22:49:37.424Z,0.41
2022-11-27T22:52:04.001Z,0.52
2022-11-27T22:54:33.583Z,0.56
2022-11-27T22:57:00.046Z,0.20
2022-11-27T22:59:34.723Z,0.25
2022-11-27T23:02:02.425Z,0.34
2022-11-27T23:04:28.913Z,0.25
2022-11-27T23:06:57.370Z,0.26
2022-11-27T23:09:23.918Z,0.27
2022-11-27T23:11:50.496Z,0.24
2022-11-27T23:14:22.602Z,0.25
2022-11-27T23:16:57.330Z,0.23
2022-11-27T23:19:23.876Z,0.37
2022-11-27T23:21:57.282Z,0.33
2022-11-27T23:24:23.708Z,0.68
2022-11-27T23:26:50.219Z,0.52
2022-11-27T23:29:16.701Z,0.39
2022-11-27T23:31:43.487Z,0.35
2022-11-27T23:34:13.917Z,0.40
2022-11-27T23:36:40.475Z,0.51
2022-11-27T23:39:11.588Z,0.47
2022-11-27T23:41:39.728Z,0.51
2022-11-27T23:44:06.377Z,0.58
2022-11-27T23:46:32.835Z,0.57
2022-11-27T23:49:00.207Z,0.50
2022-11-27T23:51:28.972Z,0.56
2022-11-27T23:53:55.723Z,0.69
2022-11-27T23:56:27.908Z,0.99
2022-11-27T23:58:55.604Z,0.85
